Time;durP1;ratioP1;P1;durP2;ratioP2;P2;SDS_P1;SDS_P2;PMS_P1;PMS_P2;Temp;Humidity;BMP_temperature;BMP_pressure;BME280_temperature;BME280_humidity;BME280_pressure;Samples;Min_cycle;Max_cycle;Signal;HPM_P1;HPM_P2
2021/11/04 00:00:26;;;;;;;67.65;14.27;;;;;;;5.53;92.61;100460.59;4995901;28;20037;-67
2021/11/04 00:02:51;;;;;;;59.30;14.43;;;;;;;5.63;92.14;100453.50;4995840;28;20361;-68
2021/11/04 00:05:17;;;;;;;67.82;14.88;;;;;;;5.70;92.26;100461.38;4995518;28;20045;-67
2021/11/04 00:07:45;;;;;;;31.55;14.18;;;;;;;5.70;91.91;100463.09;4995727;28;20076;-69
2021/11/04 00:10:12;;;;;;;78.35;14.65;;;;;;;5.56;91.86;100454.34;4995566;28;20022;-67
2021/11/04 00:12:38;;;;;;;54.90;13.85;;;;;;;5.71;91.72;100451.91;4996168;28;20053;-67
2021/11/04 00:15:03;;;;;;;69.60;12.88;;;;;;;5.77;90.85;100451.25;4998950;28;20067;-67
2021/11/04 00:17:29;;;;;;;91.43;14.30;;;;;;;5.70;90.61;100445.16;5016473;28;20037;-67
2021/11/04 00:19:54;;;;;;;71.43;14.27;;;;;;;5.60;90.75;100441.00;5016446;28;20084;-68
2021/11/04 00:22:20;;;;;;;45.95;11.43;;;;;;;5.17;91.06;100442.16;5016860;28;20364;-69
2021/11/04 00:24:45;;;;;;;57.33;11.68;;;;;;;4.94;93.85;100435.09;5016615;28;20029;-68
2021/11/04 00:27:10;;;;;;;51.17;11.70;;;;;;;5.26;93.68;100436.06;5016061;28;20104;-68
2021/11/04 00:29:36;;;;;;;55.83;12.52;;;;;;;5.26;92.49;100437.84;5016257;28;20109;-68
2021/11/04 00:32:02;;;;;;;61.25;11.68;;;;;;;5.36;92.41;100436.72;5016152;28;20025;-67
2021/11/04 00:34:28;;;;;;;45.15;12.43;;;;;;;5.40;91.75;100443.13;5016156;28;20025;-67
2021/11/04 00:36:54;;;;;;;37.08;12.25;;;;;;;5.37;91.80;100452.91;5016180;28;20372;-68
2021/11/04 00:39:19;;;;;;;47.72;12.32;;;;;;;5.43;91.95;100439.44;5016116;28;20527;-67
2021/11/04 00:41:44;;;;;;;23.17;11.00;;;;;;;5.46;91.77;100435.75;4998394;28;20022;-68
2021/11/04 00:44:10;;;;;;;20.83;11.10;;;;;;;5.46;91.76;100446.81;5015995;28;20081;-67
2021/11/04 00:46:35;;;;;;;48.13;12.93;;;;;;;5.50;91.53;100435.28;5015977;28;20033;-68
2021/11/04 00:49:00;;;;;;;32.55;12.52;;;;;;;5.64;91.63;100434.63;4998242;28;20021;-67
2021/11/04 00:51:26;;;;;;;27.95;11.70;;;;;;;5.61;91.40;100441.81;5015869;28;20084;-67
2021/11/04 00:53:52;;;;;;;31.77;12.20;;;;;;;5.67;91.46;100433.50;5015710;28;20026;-68
2021/11/04 00:56:18;;;;;;;25.38;13.02;;;;;;;5.70;91.13;100430.59;4999063;28;20032;-68
2021/11/04 00:58:43;;;;;;;28.63;12.95;;;;;;;5.73;90.58;100425.16;4998916;28;20456;-69
2021/11/04 01:01:08;;;;;;;42.97;13.90;;;;;;;5.73;90.71;100430.28;5015617;28;20032;-68
2021/11/04 01:03:34;;;;;;;25.23;12.48;;;;;;;5.60;90.95;100440.22;5015505;28;20096;-67
2021/11/04 01:05:59;;;;;;;27.65;12.18;;;;;;;5.51;91.52;100426.63;5015553;28;20018;-67
2021/11/04 01:08:24;;;;;;;21.50;12.95;;;;;;;5.56;91.76;100434.63;5015581;28;20018;-67
2021/11/04 01:10:50;;;;;;;22.35;12.43;;;;;;;5.65;91.60;100432.84;5015448;28;20359;-67
2021/11/04 01:13:15;;;;;;;32.25;12.52;;;;;;;5.59;91.76;100439.44;5015603;28;20421;-69
2021/11/04 01:15:40;;;;;;;19.25;12.23;;;;;;;5.59;92.02;100439.44;5015948;28;20026;-67
2021/11/04 01:18:06;;;;;;;26.42;13.18;;;;;;;5.60;91.35;100435.88;5015633;28;20108;-67
2021/11/04 01:20:32;;;;;;;33.72;12.30;;;;;;;5.53;91.79;100431.59;4998412;28;20372;-68
2021/11/04 01:22:57;;;;;;;27.67;12.52;;;;;;;5.54;91.50;100428.06;4997582;28;20460;-68
2021/11/04 01:25:22;;;;;;;21.05;12.55;;;;;;;5.52;91.92;100419.72;5014391;28;20017;-67
2021/11/04 01:27:48;;;;;;;20.23;11.60;;;;;;;5.55;92.05;100417.66;5014935;28;20058;-67
2021/11/04 01:30:13;;;;;;;27.23;12.73;;;;;;;5.56;92.20;100418.44;5015132;28;20365;-68
2021/11/04 01:32:39;;;;;;;29.90;12.40;;;;;;;5.56;91.26;100421.00;4997453;28;20021;-68
2021/11/04 01:35:06;;;;;;;65.82;12.13;;;;;;;5.54;90.56;100428.84;5015034;28;20033;-67
2021/11/04 01:37:31;;;;;;;21.52;12.10;;;;;;;5.51;91.11;100423.25;5014919;28;20057;-67
2021/11/04 01:39:57;;;;;;;24.83;11.38;;;;;;;5.46;91.35;100420.38;5014944;28;20045;-67
2021/11/04 01:42:23;;;;;;;39.17;12.65;;;;;;;5.43;91.51;100422.28;5014801;28;20098;-68
2021/11/04 01:44:48;;;;;;;35.65;11.70;;;;;;;5.43;91.48;100417.16;4997281;28;20391;-68
2021/11/04 01:47:14;;;;;;;44.47;11.52;;;;;;;5.40;91.44;100406.44;5014740;28;20026;-68
2021/11/04 01:49:41;;;;;;;68.65;12.60;;;;;;;5.37;92.04;100412.69;5015084;28;20037;-67
2021/11/04 01:52:08;;;;;;;47.05;12.15;;;;;;;5.36;92.18;100407.75;5014702;28;20018;-68
2021/11/04 01:54:33;;;;;;;55.03;11.80;;;;;;;5.27;91.95;100401.81;4996946;28;20124;-68
2021/11/04 01:56:58;;;;;;;82.43;11.70;;;;;;;5.28;91.89;100402.63;4997025;28;20117;-68
2021/11/04 01:59:23;;;;;;;197.23;13.00;;;;;;;5.18;91.50;100405.34;5014591;28;20021;-68
2021/11/04 02:01:59;;;;;;;130.27;11.75;;;;;;;5.07;91.92;100395.44;5014491;28;20036;-68
2021/11/04 02:04:33;;;;;;;160.45;13.13;;;;;;;5.06;91.31;100401.50;5015095;28;20112;-68
2021/11/04 02:07:25;;;;;;;131.23;15.55;;;;;;;5.03;92.58;100399.25;5015049;28;20022;-68
2021/11/04 02:10:11;;;;;;;116.85;14.25;;;;;;;4.98;92.40;100397.97;5013950;28;20137;-68
2021/11/04 02:12:48;;;;;;;149.55;13.55;;;;;;;4.90;92.94;100400.53;5014431;28;20025;-68
2021/11/04 02:15:15;;;;;;;105.93;10.63;;;;;;;4.92;91.91;100396.06;5014331;28;20412;-68
2021/11/04 02:17:43;;;;;;;107.30;10.88;;;;;;;4.88;92.54;100397.31;5014278;28;20365;-68
2021/11/04 02:20:11;;;;;;;66.97;10.48;;;;;;;4.95;92.76;100395.75;4996742;28;20049;-68
2021/11/04 02:22:57;;;;;;;97.32;10.30;;;;;;;4.78;91.98;100388.22;5014050;28;20064;-67
2021/11/04 02:25:26;;;;;;;55.28;9.13;;;;;;;4.74;92.17;100387.72;5014191;28;20033;-68
2021/11/04 02:27:55;;;;;;;59.88;8.90;;;;;;;4.64;92.25;100385.31;5013906;28;20113;-67
2021/11/04 02:30:22;;;;;;;39.13;8.55;;;;;;;4.77;92.46;100381.47;5014144;28;20482;-67
2021/11/04 02:32:50;;;;;;;34.65;8.20;;;;;;;4.62;92.30;100376.19;4996334;28;20484;-67
2021/11/04 02:35:16;;;;;;;29.17;9.95;;;;;;;4.60;91.34;100373.75;4996483;28;20388;-67
2021/11/04 02:37:43;;;;;;;21.95;8.38;;;;;;;4.56;91.78;100376.81;5013846;28;20026;-67
2021/11/04 02:40:09;;;;;;;15.95;8.63;;;;;;;4.63;91.39;100380.34;5014243;28;20029;-67
2021/11/04 02:42:37;;;;;;;13.63;8.18;;;;;;;4.62;91.10;100366.75;4996480;28;20029;-67
2021/11/04 02:45:03;;;;;;;35.22;8.75;;;;;;;4.52;91.70;100376.34;5014098;28;20472;-67
2021/11/04 02:47:28;;;;;;;27.38;9.70;;;;;;;4.48;91.56;100382.72;4996497;28;20084;-67
2021/11/04 02:49:54;;;;;;;27.95;8.70;;;;;;;4.33;92.89;100381.72;5013837;28;20029;-68
2021/11/04 02:52:19;;;;;;;31.00;8.93;;;;;;;4.26;92.77;100379.00;5013688;28;20472;-67
2021/11/04 02:54:56;;;;;;;36.50;9.00;;;;;;;4.34;92.93;100384.09;5013914;28;20032;-67
2021/11/04 02:57:22;;;;;;;41.75;8.68;;;;;;;4.50;92.18;100386.72;5014017;28;20049;-67
2021/11/04 02:59:48;;;;;;;100.07;10.40;;;;;;;4.47;90.84;100383.66;5013681;28;20025;-68
2021/11/04 03:02:14;;;;;;;29.00;9.02;;;;;;;4.39;91.36;100393.88;5013594;28;20171;-68
2021/11/04 03:04:40;;;;;;;46.25;9.88;;;;;;;4.52;92.04;100400.16;5013600;28;20040;-68
2021/11/04 03:07:06;;;;;;;33.03;9.45;;;;;;;4.43;90.59;100410.50;5013624;28;20021;-68
2021/11/04 03:09:31;;;;;;;48.03;8.82;;;;;;;4.37;90.83;100406.03;4995870;28;20161;-68
2021/11/04 03:11:57;;;;;;;31.70;8.75;;;;;;;4.36;90.92;100407.78;5013599;28;20117;-69
2021/11/04 03:14:22;;;;;;;29.80;8.52;;;;;;;4.29;90.40;100407.63;5013815;28;20100;-68
2021/11/04 03:16:52;;;;;;;70.95;9.85;;;;;;;4.31;91.23;100410.00;5013540;28;20341;-67
2021/11/04 03:19:18;;;;;;;38.35;8.75;;;;;;;4.22;91.63;100418.59;5013594;28;20022;-68
2021/11/04 03:21:49;;;;;;;31.60;7.75;;;;;;;4.18;91.14;100415.56;5013532;28;20460;-70
2021/11/04 03:24:18;;;;;;;27.00;8.00;;;;;;;4.19;91.21;100422.28;4995946;28;20053;-69
2021/11/04 03:26:45;;;;;;;36.97;8.77;;;;;;;4.10;90.91;100417.28;5013468;28;20034;-67
2021/11/04 03:29:12;;;;;;;20.23;8.18;;;;;;;4.06;92.18;100409.13;5013319;28;20108;-68
2021/11/04 03:31:39;;;;;;;21.92;7.63;;;;;;;4.09;91.68;100408.81;4995778;28;20022;-68
2021/11/04 03:34:06;;;;;;;26.90;8.43;;;;;;;3.99;91.79;100421.69;5013401;28;20060;-68
2021/11/04 03:36:34;;;;;;;18.33;8.93;;;;;;;3.91;91.90;100421.66;5013372;28;20026;-68
2021/11/04 03:38:59;;;;;;;21.63;8.38;;;;;;;3.88;92.10;100423.72;5013271;28;20080;-68
2021/11/04 03:41:25;;;;;;;26.60;9.57;;;;;;;3.97;92.12;100420.25;5013339;28;20022;-69
2021/11/04 03:43:51;;;;;;;11.32;7.82;;;;;;;4.05;91.43;100425.41;4995699;28;20431;-68
2021/11/04 03:46:17;;;;;;;11.57;7.15;;;;;;;3.98;91.20;100426.97;5013341;28;20468;-68
2021/11/04 03:48:43;;;;;;;38.35;8.15;;;;;;;3.88;90.74;100427.06;5015198;28;20026;-68
2021/11/04 03:51:10;;;;;;;25.83;8.65;;;;;;;3.87;90.75;100434.91;5017000;28;20092;-68
2021/11/04 03:53:37;;;;;;;27.58;8.23;;;;;;;3.95;91.19;100433.19;4999296;28;20026;-68
2021/11/04 03:56:03;;;;;;;26.48;7.63;;;;;;;3.95;90.38;100430.63;5016909;28;20026;-68
2021/11/04 03:58:29;;;;;;;18.38;7.60;;;;;;;3.88;90.84;100428.84;5016851;28;20040;-68
2021/11/04 04:00:56;;;;;;;19.63;7.95;;;;;;;3.71;91.56;100428.75;5016765;28;20157;-68
2021/11/04 04:03:22;;;;;;;29.50;8.05;;;;;;;3.80;91.82;100432.16;5017209;28;20029;-67
2021/11/04 04:06:07;;;;;;;38.05;8.50;;;;;;;3.68;90.81;100439.25;5016681;28;20034;-66
2021/11/04 04:08:41;;;;;;;24.35;7.43;;;;;;;3.78;91.22;100434.84;5017256;28;20098;-68
2021/11/04 04:11:07;;;;;;;22.83;6.95;;;;;;;3.83;89.85;100454.88;5016949;28;20022;-67
2021/11/04 04:13:32;;;;;;;35.75;6.97;;;;;;;3.58;90.71;100452.13;5016542;28;20469;-69
2021/11/04 04:15:58;;;;;;;48.47;6.63;;;;;;;3.28;90.90;100460.19;4998959;28;20061;-68
2021/11/04 04:18:23;;;;;;;41.88;6.78;;;;;;;3.14;91.94;100458.97;5016508;28;20061;-68
2021/11/04 04:20:50;;;;;;;35.65;6.57;;;;;;;3.08;91.72;100446.78;5016712;28;20049;-67
2021/11/04 04:23:15;;;;;;;21.02;6.40;;;;;;;3.25;91.98;100450.28;5016282;28;20029;-67
2021/11/04 04:25:41;;;;;;;30.75;6.22;;;;;;;3.03;91.75;100454.09;4998855;28;20463;-67
2021/11/04 04:28:06;;;;;;;12.65;6.47;;;;;;;3.07;92.21;100456.19;4998670;28;20046;-68
2021/11/04 04:30:31;;;;;;;24.55;6.05;;;;;;;3.17;91.67;100451.81;5016796;28;20431;-68
2021/11/04 04:32:57;;;;;;;34.30;6.90;;;;;;;3.26;90.51;100459.56;4998588;28;20029;-68
2021/11/04 04:35:22;;;;;;;19.00;6.30;;;;;;;2.95;90.68;100457.38;5016268;28;20388;-68
2021/11/04 04:37:48;;;;;;;17.67;6.20;;;;;;;3.06;90.72;100461.47;4998553;28;20083;-68
2021/11/04 04:40:13;;;;;;;28.38;5.82;;;;;;;2.90;90.15;100462.88;4998504;28;20156;-68
2021/11/04 04:42:38;;;;;;;20.65;6.15;;;;;;;2.84;90.83;100458.38;5015977;28;20033;-67
2021/11/04 04:45:05;;;;;;;12.77;6.20;;;;;;;3.12;90.68;100458.31;5015991;28;20039;-67
2021/11/04 04:47:31;;;;;;;8.10;5.63;;;;;;;3.25;90.01;100457.94;5015932;28;20022;-67
2021/11/04 04:49:58;;;;;;;7.90;5.53;;;;;;;3.35;89.60;100454.38;5015980;28;20384;-68
2021/11/04 04:52:25;;;;;;;7.45;5.47;;;;;;;3.33;89.13;100458.00;5016067;28;20030;-68
2021/11/04 04:54:50;;;;;;;7.97;5.55;;;;;;;3.36;89.46;100453.41;5015793;28;20084;-68
2021/11/04 04:57:22;;;;;;;11.07;7.72;;;;;;;3.40;89.20;100456.47;5015792;28;20037;-68
2021/11/04 04:59:47;;;;;;;8.40;6.15;;;;;;;3.45;89.17;100456.03;5014841;28;20056;-68
2021/11/04 05:02:12;;;;;;;9.82;5.90;;;;;;;3.26;90.00;100455.25;5015589;28;20464;-69
2021/11/04 05:04:37;;;;;;;11.25;6.22;;;;;;;3.41;90.43;100452.16;4998082;28;20021;-68
2021/11/04 05:07:03;;;;;;;7.70;6.15;;;;;;;3.47;90.24;100442.16;5015720;28;20084;-68
2021/11/04 05:09:29;;;;;;;8.55;5.95;;;;;;;3.52;89.71;100439.97;5015587;28;20030;-67
2021/11/04 05:11:54;;;;;;;13.25;6.40;;;;;;;3.61;89.81;100435.72;4998152;28;20028;-69
2021/11/04 05:14:19;;;;;;;9.23;6.30;;;;;;;3.65;90.11;100438.75;5015735;28;20033;-68
2021/11/04 05:16:45;;;;;;;8.98;6.80;;;;;;;3.80;89.64;100437.28;5015383;28;20026;-68
2021/11/04 05:19:10;;;;;;;10.80;7.05;;;;;;;3.75;89.52;100439.47;5015385;28;20076;-68
2021/11/04 05:21:35;;;;;;;11.85;7.78;;;;;;;3.81;89.28;100438.88;5015284;28;20029;-67
2021/11/04 05:24:01;;;;;;;12.00;7.80;;;;;;;3.89;90.61;100445.78;5015395;28;20368;-67
2021/11/04 05:26:26;;;;;;;17.65;7.68;;;;;;;3.90;89.88;100450.75;4997667;28;20388;-67
2021/11/04 05:28:51;;;;;;;10.40;7.65;;;;;;;3.88;89.53;100457.75;5015047;28;20042;-67
2021/11/04 05:31:17;;;;;;;10.65;7.57;;;;;;;3.95;89.08;100450.28;5015090;28;20026;-67
2021/11/04 05:33:42;;;;;;;10.35;7.72;;;;;;;3.94;89.32;100464.00;5015019;28;20472;-67
2021/11/04 05:36:07;;;;;;;10.93;7.63;;;;;;;3.96;89.77;100457.78;5014969;28;20029;-67
2021/11/04 05:38:33;;;;;;;13.20;7.70;;;;;;;3.89;90.23;100454.25;5015098;28;20018;-67
2021/11/04 05:40:58;;;;;;;11.25;7.50;;;;;;;3.90;90.38;100470.41;4997288;28;20380;-67
2021/11/04 05:43:23;;;;;;;12.45;8.75;;;;;;;3.79;92.02;100485.00;4997193;28;20116;-67
2021/11/04 05:45:48;;;;;;;13.30;9.20;;;;;;;4.00;92.01;100481.31;5015316;28;20030;-67
2021/11/04 05:48:14;;;;;;;13.50;9.25;;;;;;;4.21;92.09;100480.97;5014747;28;20103;-67
2021/11/04 05:50:39;;;;;;;13.60;9.02;;;;;;;4.46;91.84;100484.41;5014916;28;20105;-67
2021/11/04 05:53:04;;;;;;;17.77;9.35;;;;;;;4.74;92.43;100477.31;5014605;28;20018;-66
2021/11/04 05:55:30;;;;;;;14.77;9.23;;;;;;;4.86;92.31;100473.50;4997055;28;20061;-66
2021/11/04 05:57:57;;;;;;;15.07;9.48;;;;;;;4.96;93.23;100470.81;4996905;28;20028;-66
2021/11/04 06:00:22;;;;;;;13.65;9.27;;;;;;;5.13;92.58;100471.63;5014484;28;20377;-67
2021/11/04 06:02:47;;;;;;;12.48;8.55;;;;;;;5.18;92.34;100466.84;5014887;28;20072;-67
2021/11/04 06:05:12;;;;;;;12.18;8.50;;;;;;;5.32;91.81;100460.25;5014481;28;20384;-66
2021/11/04 06:07:38;;;;;;;15.52;9.02;;;;;;;5.42;91.58;100463.47;5014233;28;20060;-66
2021/11/04 06:10:04;;;;;;;12.30;8.75;;;;;;;5.50;91.18;100468.59;5014475;28;20101;-66
2021/11/04 06:12:29;;;;;;;13.10;8.75;;;;;;;5.50;91.44;100467.81;5013987;28;20058;-68
2021/11/04 06:14:54;;;;;;;12.23;8.45;;;;;;;5.54;91.55;100469.88;5014311;28;20022;-67
2021/11/04 06:17:19;;;;;;;12.25;8.10;;;;;;;5.55;91.60;100475.78;5014301;28;20033;-68
2021/11/04 06:19:45;;;;;;;11.55;8.50;;;;;;;5.51;91.22;100465.06;4996610;28;20017;-68
2021/11/04 06:22:10;;;;;;;11.40;8.25;;;;;;;5.43;91.51;100473.53;5014121;28;20467;-68
2021/11/04 06:24:35;;;;;;;11.02;7.70;;;;;;;5.48;91.39;100474.84;4996517;28;20022;-67
2021/11/04 06:27:01;;;;;;;11.27;8.05;;;;;;;5.53;90.55;100473.41;5013990;28;20026;-67
2021/11/04 06:29:26;;;;;;;13.48;8.48;;;;;;;5.49;90.68;100484.13;5014118;28;20535;-67
2021/11/04 06:31:51;;;;;;;13.40;8.73;;;;;;;5.52;90.69;100491.50;4996519;28;20099;-67
2021/11/04 06:34:16;;;;;;;14.48;9.05;;;;;;;5.56;91.03;100495.34;5014017;28;20022;-67
2021/11/04 06:36:43;;;;;;;12.65;8.90;;;;;;;5.52;90.62;100499.97;5013966;28;20456;-67
2021/11/04 06:39:08;;;;;;;14.10;8.52;;;;;;;5.55;90.57;100502.25;4996720;28;20051;-67
2021/11/04 06:41:34;;;;;;;12.50;8.80;;;;;;;5.69;91.06;100503.34;4996276;28;20112;-67
2021/11/04 06:43:59;;;;;;;14.13;8.88;;;;;;;5.61;90.88;100498.22;5013825;28;20421;-68
2021/11/04 06:46:26;;;;;;;14.02;9.07;;;;;;;5.69;91.11;100498.22;5013796;28;20045;-67
2021/11/04 06:49:08;;;;;;;16.33;9.57;;;;;;;5.67;91.08;100502.72;5013834;28;20026;-67
2021/11/04 06:51:38;;;;;;;13.00;9.43;;;;;;;5.68;91.41;100503.50;5013794;28;20468;-69
2021/11/04 06:54:06;;;;;;;13.93;9.05;;;;;;;5.68;91.51;100501.75;5013689;28;20096;-68
2021/11/04 06:56:43;;;;;;;12.13;9.57;;;;;;;5.70;91.43;100506.69;5013680;28;20109;-68
2021/11/04 06:59:26;;;;;;;12.63;9.00;;;;;;;5.66;91.41;100507.03;4996295;28;20040;-68
2021/11/04 07:01:57;;;;;;;11.10;8.32;;;;;;;5.73;91.21;100504.63;4996161;28;20388;-68
2021/11/04 07:04:25;;;;;;;11.48;9.15;;;;;;;5.72;91.32;100509.91;4995988;28;20026;-68
2021/11/04 07:07:00;;;;;;;11.90;8.95;;;;;;;5.69;91.86;100505.09;5013637;28;20084;-68
2021/11/04 07:09:27;;;;;;;10.88;8.05;;;;;;;5.75;91.58;100497.56;5013549;28;20033;-67
2021/11/04 07:11:55;;;;;;;12.10;8.38;;;;;;;5.78;91.50;100497.25;5013467;28;20105;-69
2021/11/04 07:14:25;;;;;;;13.60;9.50;;;;;;;5.85;91.51;100497.41;5013395;28;20032;-68
2021/11/04 07:16:50;;;;;;;11.95;8.40;;;;;;;5.92;91.38;100492.41;5013346;28;20484;-68
2021/11/04 07:19:19;;;;;;;14.05;8.40;;;;;;;6.03;90.84;100504.94;5013313;28;20026;-70
2021/11/04 07:21:58;;;;;;;12.15;8.50;;;;;;;6.10;90.54;100516.94;5013255;28;20436;-69
2021/11/04 07:24:31;;;;;;;13.30;8.43;;;;;;;6.17;90.56;100513.72;5016404;28;20080;-66
2021/11/04 07:27:10;;;;;;;13.85;8.80;;;;;;;6.25;90.04;100518.84;5017196;28;20080;-68
2021/11/04 07:29:48;;;;;;;15.35;8.40;;;;;;;6.42;89.73;100522.97;4999531;28;20037;-69
2021/11/04 07:32:16;;;;;;;10.68;7.80;;;;;;;6.42;88.61;100527.28;4999544;28;20040;-68
2021/11/04 07:34:44;;;;;;;13.40;8.73;;;;;;;6.47;89.60;100527.56;5016953;28;20036;-68
2021/11/04 07:37:12;;;;;;;12.35;8.43;;;;;;;6.42;89.31;100522.16;4999206;28;20030;-67
2021/11/04 07:39:39;;;;;;;12.27;8.25;;;;;;;6.50;89.44;100528.06;5016889;28;20361;-68
2021/11/04 07:42:07;;;;;;;13.02;8.88;;;;;;;6.57;89.32;100527.41;4999174;28;20022;-69
2021/11/04 07:44:32;;;;;;;12.25;8.70;;;;;;;6.91;89.04;100529.66;5016720;28;20025;-68
2021/11/04 07:46:58;;;;;;;13.25;8.43;;;;;;;7.17;87.02;100530.13;5016788;28;20523;-68
2021/11/04 07:49:23;;;;;;;15.48;8.23;;;;;;;6.89;86.74;100534.16;4999202;28;20022;-69
2021/11/04 07:51:48;;;;;;;14.93;8.57;;;;;;;7.01;87.71;100522.50;5016729;28;20084;-67
2021/11/04 07:54:14;;;;;;;16.17;8.60;;;;;;;7.04;88.04;100524.75;4999040;28;20018;-68
2021/11/04 07:56:39;;;;;;;18.85;9.07;;;;;;;7.24;88.25;100525.91;5016692;28;20033;-68
2021/11/04 07:59:04;;;;;;;12.85;8.40;;;;;;;7.48;87.44;100519.00;5016659;28;20022;-69
2021/11/04 08:01:29;;;;;;;12.75;8.30;;;;;;;7.58;85.80;100524.69;4999033;28;20087;-68
2021/11/04 08:03:55;;;;;;;17.67;8.10;;;;;;;7.83;85.14;100524.50;5016713;28;20017;-68
2021/11/04 08:06:20;;;;;;;12.30;7.93;;;;;;;7.86;84.29;100524.94;5016571;28;20480;-67
2021/11/04 08:08:46;;;;;;;14.82;7.72;;;;;;;8.03;84.79;100528.16;5016770;28;20054;-67
2021/11/04 08:11:11;;;;;;;15.23;7.70;;;;;;;8.18;83.97;100527.38;5016486;28;20026;-67
2021/11/04 08:13:36;;;;;;;10.45;7.32;;;;;;;7.96;83.02;100523.88;5016763;28;20033;-67
2021/11/04 08:16:02;;;;;;;12.25;8.05;;;;;;;8.03;84.49;100527.38;5017267;28;20025;-68
2021/11/04 08:18:27;;;;;;;13.13;7.63;;;;;;;8.16;84.31;100531.88;5016758;28;20033;-68
2021/11/04 08:20:52;;;;;;;12.15;7.57;;;;;;;8.30;84.44;100531.09;5017172;28;20060;-68
2021/11/04 08:23:18;;;;;;;10.32;7.97;;;;;;;8.32;83.58;100532.50;5016993;28;20026;-68
2021/11/04 08:25:44;;;;;;;11.45;7.70;;;;;;;8.29;85.35;100542.38;5016474;28;20092;-68
2021/11/04 08:28:09;;;;;;;10.00;7.57;;;;;;;8.45;84.84;100544.78;5016260;28;20415;-68
2021/11/04 08:30:35;;;;;;;15.80;7.78;;;;;;;8.40;85.21;100541.97;5016238;28;20033;-68
2021/11/04 08:33:01;;;;;;;11.55;7.72;;;;;;;8.16;86.25;100552.47;4998837;28;20102;-67
2021/11/04 08:35:27;;;;;;;14.18;8.35;;;;;;;8.28;84.45;100557.00;4998370;28;20036;-67
2021/11/04 08:37:53;;;;;;;9.60;7.10;;;;;;;8.48;83.30;100553.94;5016307;28;20065;-69
2021/11/04 08:40:19;;;;;;;13.65;7.28;;;;;;;8.67;81.90;100550.81;4998919;28;20045;-73
2021/11/04 08:42:44;;;;;;;10.57;7.20;;;;;;;8.84;81.86;100560.94;5016805;28;20550;-71
2021/11/04 08:45:10;;;;;;;9.98;7.30;;;;;;;8.91;82.76;100551.47;5017059;28;20022;-72
2021/11/04 08:47:36;;;;;;;10.15;7.40;;;;;;;9.07;82.24;100555.63;4999408;28;20487;-69
2021/11/04 08:50:03;;;;;;;12.20;7.35;;;;;;;8.98;81.58;100560.88;4999718;28;20069;-70
2021/11/04 08:52:28;;;;;;;10.30;7.22;;;;;;;9.16;81.32;100562.25;5017477;28;20044;-70
2021/11/04 08:58:16;;;;;;;11.27;7.47;;;;;;;8.65;84.12;100567.41;5016776;28;20041;-68
2021/11/04 09:00:41;;;;;;;11.30;7.65;;;;;;;8.79;84.46;100571.75;5016076;28;20453;-69
2021/11/04 09:03:08;;;;;;;9.13;7.53;;;;;;;8.61;85.47;100571.34;4998659;28;20073;-67
2021/11/04 09:05:33;;;;;;;10.32;7.45;;;;;;;8.64;84.44;100574.34;5016046;28;20412;-69
2021/11/04 09:07:59;;;;;;;15.32;7.72;;;;;;;8.36;85.26;100576.72;5015864;28;20033;-71
2021/11/04 09:10:26;;;;;;;12.23;7.80;;;;;;;8.42;85.65;100576.03;4998665;28;20029;-69
2021/11/04 09:12:51;;;;;;;11.82;7.47;;;;;;;8.42;84.73;100582.97;4998190;28;20022;-70
2021/11/04 09:15:17;;;;;;;10.55;7.72;;;;;;;8.49;85.94;100583.88;5015568;28;20388;-72
2021/11/04 09:17:43;;;;;;;11.68;7.40;;;;;;;8.43;85.60;100581.97;4997974;28;20026;-71
2021/11/04 09:20:11;;;;;;;10.15;7.78;;;;;;;8.68;85.96;100582.53;4997734;28;20113;-69
2021/11/04 09:22:37;;;;;;;10.77;7.55;;;;;;;9.01;84.93;100596.63;4997580;28;20049;-68
2021/11/04 09:25:03;;;;;;;9.25;6.50;;;;;;;11.11;77.02;100579.66;5015323;28;20022;-67
2021/11/04 09:27:29;;;;;;;9.90;6.03;;;;;;;12.26;71.81;100582.94;4998246;28;20107;-69
2021/11/04 09:29:56;;;;;;;11.20;6.07;;;;;;;11.94;74.39;100580.97;5015054;28;20030;-67
2021/11/04 09:32:21;;;;;;;8.60;5.90;;;;;;;10.88;77.63;100574.81;5015041;28;20460;-68
2021/11/04 09:34:47;;;;;;;9.40;6.03;;;;;;;9.84;82.30;100578.97;5015039;28;20022;-67
2021/11/04 09:37:12;;;;;;;12.50;6.47;;;;;;;9.41;84.11;100580.78;4997702;28;20113;-69
2021/11/04 09:39:37;;;;;;;9.93;6.45;;;;;;;9.19;86.23;100587.69;4997514;28;20022;-68
2021/11/04 09:42:04;;;;;;;15.95;6.72;;;;;;;8.95;87.31;100576.72;4997380;28;20025;-67
2021/11/04 09:44:30;;;;;;;14.30;6.72;;;;;;;8.83;87.94;100578.13;5014850;28;20438;-66
2021/11/04 09:46:55;;;;;;;11.25;6.30;;;;;;;8.95;85.87;100576.72;5014185;28;20029;-69
2021/11/04 09:49:21;;;;;;;11.38;6.60;;;;;;;8.81;87.07;100583.50;5014850;28;20044;-68
2021/11/04 09:51:47;;;;;;;12.02;7.03;;;;;;;8.82;87.44;100586.84;5014772;28;20388;-68
2021/11/04 09:54:12;;;;;;;61.13;9.18;;;;;;;8.87;87.78;100592.28;5014556;28;20471;-68
2021/11/04 09:56:39;;;;;;;19.48;6.70;;;;;;;8.79;87.50;100589.78;5014678;28;20026;-68
2021/11/04 09:59:05;;;;;;;12.23;6.75;;;;;;;8.71;87.86;100595.03;5014639;28;20388;-68
2021/11/04 10:01:33;;;;;;;10.75;6.20;;;;;;;8.76;87.88;100583.22;5014680;28;20438;-69
2021/11/04 10:04:00;;;;;;;9.95;6.25;;;;;;;8.84;88.70;100599.56;5014541;28;20034;-69
2021/11/04 10:06:35;;;;;;;12.10;6.38;;;;;;;8.86;88.85;100592.44;5014542;28;20029;-68
2021/11/04 10:09:05;;;;;;;10.85;5.97;;;;;;;8.92;88.46;100600.28;5014570;28;20388;-69
2021/11/04 10:11:35;;;;;;;8.55;6.00;;;;;;;9.01;88.65;100596.63;5015015;28;20042;-69
2021/11/04 10:14:03;;;;;;;14.93;6.20;;;;;;;9.08;87.85;100604.41;5014434;28;20033;-69
2021/11/04 10:16:29;;;;;;;10.00;6.75;;;;;;;9.09;87.47;100610.34;5014986;28;20080;-69
2021/11/04 10:22:27;;;;;;;10.77;5.80;;;;;;;9.29;86.28;100613.16;5014487;28;20138;-67
2021/11/04 10:24:54;;;;;;;7.32;4.97;;;;;;;9.53;85.18;100615.41;5014180;28;20029;-68
2021/11/04 10:27:31;;;;;;;8.52;5.47;;;;;;;9.73;84.23;100605.28;5014354;28;20476;-68
2021/11/04 10:29:56;;;;;;;11.15;6.40;;;;;;;9.96;83.80;100610.22;4997210;28;20494;-69
2021/11/04 10:32:36;;;;;;;8.60;5.72;;;;;;;9.73;85.32;100607.06;4996761;28;20057;-68
2021/11/04 10:35:10;;;;;;;6.95;5.53;;;;;;;10.16;84.14;100610.38;4996582;28;20049;-68
2021/11/04 10:37:43;;;;;;;12.95;5.70;;;;;;;10.65;82.14;100624.22;5013974;28;20036;-68
2021/11/04 10:40:18;;;;;;;8.50;5.40;;;;;;;10.51;82.65;100623.34;5013946;28;20163;-70
2021/11/04 10:42:58;;;;;;;20.02;5.72;;;;;;;10.23;83.38;100618.16;5013799;28;20025;-68
2021/11/04 10:45:26;;;;;;;7.50;5.05;;;;;;;10.24;83.63;100632.66;5014048;28;20032;-68
2021/11/04 10:48:18;;;;;;;7.55;5.22;;;;;;;10.06;84.63;100633.91;5013863;28;20421;-69
2021/11/04 10:50:44;;;;;;;9.18;5.30;;;;;;;9.84;85.81;100640.91;5013923;28;20076;-69
2021/11/04 10:53:11;;;;;;;7.15;3.88;;;;;;;9.63;85.81;100648.63;5013820;28;20093;-68
2021/11/04 10:55:36;;;;;;;8.38;4.00;;;;;;;10.01;84.11;100641.44;4996328;28;20054;-68
2021/11/04 10:58:06;;;;;;;6.20;3.58;;;;;;;12.01;77.19;100631.97;4996035;28;20365;-68
2021/11/04 11:00:38;;;;;;;8.00;2.70;;;;;;;12.16;75.21;100638.50;4995920;28;20030;-69
2021/11/04 11:03:03;;;;;;;4.28;2.45;;;;;;;21.10;47.78;100646.66;5013559;28;20025;-69
2021/11/04 11:05:34;;;;;;;5.10;2.13;;;;;;;22.92;41.72;100648.47;5013704;28;20061;-70
2021/11/04 11:08:00;;;;;;;4.13;2.03;;;;;;;24.07;38.71;100646.28;4996122;28;20030;-70
2021/11/04 11:10:26;;;;;;;4.53;2.30;;;;;;;24.57;37.56;100651.28;5013544;28;20045;-70
2021/11/04 11:12:51;;;;;;;4.90;2.40;;;;;;;24.68;38.76;100656.16;5014073;28;20022;-71
2021/11/04 11:15:17;;;;;;;4.53;2.22;;;;;;;23.51;39.75;100644.94;5013855;28;20371;-71
2021/11/04 11:17:45;;;;;;;7.93;2.10;;;;;;;24.18;38.96;100650.38;5013568;28;20030;-69
2021/11/04 11:23:32;;;;;;;2.92;1.90;;;;;;;24.97;37.47;100648.13;5013495;28;20061;-72
2021/11/04 11:26:02;;;;;;;3.23;2.10;;;;;;;24.02;38.24;100655.03;5013426;28;20022;-72
2021/11/04 11:28:39;;;;;;;2.60;1.75;;;;;;;20.24;44.09;100646.03;5013579;28;20685;-69
2021/11/04 11:31:10;;;;;;;2.53;1.70;;;;;;;22.70;41.91;100660.19;5013510;28;20046;-70
2021/11/04 11:33:44;;;;;;;4.53;1.77;;;;;;;23.51;38.84;100663.41;5013884;28;20021;-71